Terminal Aerodrome Forecast
Issued by NWS Rapid City, SD

Home | Current Version | Previous Version | Text Only | Print | Product List | Glossary Off
Versions: 1 2 3 4 5 6 7 8 9 10 11 12 13 14 15 16 17 18 19

000
FTUS43 KUNR 021700
TAFRAP
TAF
KRAP 021724Z 0218/0318 17018G28KT P6SM BKN250
     FM022200 17010KT P6SM BKN060
     FM030300 34018G28KT 2SM -SN BR OVC015
     FM030500 34028G40KT 1/2SM SN BLSN OVC005
     FM031200 33028G40KT 1SM -SN BLSN SCT010 OVC040=

USA.gov is the U.S. government's official web portal to all federal, state and local government web resources and services.